YBY weather

Bonnyville Airport
Bonnyville, Alberta, Canada

Public forecast

Using degrees Celsius for public forecast. Weather courtesy of forecast.io.

Closest aviation weather report (METAR) to Bonnyville Airport

Closest report is CFB Cold Lake, 17.4 nm (32.1 km) ENE. Retrieved 2020/02/29 03:00 UTC (1 hour ago):

CYOD 290300Z 22003KT 15SM OVC100 02/M06 A2971 RMK AC8 SLP085

Closest aviation forecast (TAF) to Bonnyville Airport

Closest forecast is CFB Cold Lake, 17.4 nm (32.1 km) ENE. Retrieved 2020-02-29 00:35 UTC (4 hours ago):

TAF CYOD 282330Z 2900/2924 27008KT P6SM FEW160 BKN200 BECMG 2900/2902 21005KT FM290300 21005KT P6SM BKN070 BECMG 2905/2907 08005KT FM290900 08005KT P6SM FEW020 BKN040 OVC070 TEMPO 2909/2912 P6SM -SN FM291200 08012KT P6SM -SN FEW010 OVC040 TEMPO 2912/2915 3SM -SHSN SCT010 OVC020 FM291500 07018G28KT 4SM -SN SCT010 OVC020 TEMPO 2915/2921 1SM -SHSN OVC010 FM292100 02020G30KT 4SM -SN OVC015 PROB40 2921/2924 3/4SM -SN BLSN OVC008 RMK NXT FCST BY 290600Z